sensor_id;sensor_type;location;lat;lon;timestamp;P1;durP1;ratioP1;P2;durP2;ratioP2
9689;SDS011;4884;42.614;23.340;2023-02-13T00:02:11;38.57;;;20.90;;
9689;SDS011;4884;42.614;23.340;2023-02-13T00:04:38;34.27;;;17.33;;
9689;SDS011;4884;42.614;23.340;2023-02-13T00:07:03;32.90;;;17.00;;
9689;SDS011;4884;42.614;23.340;2023-02-13T00:09:29;32.57;;;15.63;;
9689;SDS011;4884;42.614;23.340;2023-02-13T00:11:54;27.63;;;15.33;;
9689;SDS011;4884;42.614;23.340;2023-02-13T00:14:19;24.77;;;14.10;;
9689;SDS011;4884;42.614;23.340;2023-02-13T00:16:45;18.33;;;10.43;;
9689;SDS011;4884;42.614;23.340;2023-02-13T00:19:10;24.63;;;12.77;;
9689;SDS011;4884;42.614;23.340;2023-02-13T00:21:35;24.63;;;13.53;;
9689;SDS011;4884;42.614;23.340;2023-02-13T00:24:01;23.27;;;12.93;;
9689;SDS011;4884;42.614;23.340;2023-02-13T00:26:26;23.17;;;13.83;;
9689;SDS011;4884;42.614;23.340;2023-02-13T00:28:51;25.13;;;15.27;;
9689;SDS011;4884;42.614;23.340;2023-02-13T00:31:18;28.37;;;16.20;;
9689;SDS011;4884;42.614;23.340;2023-02-13T00:33:44;27.30;;;15.53;;
9689;SDS011;4884;42.614;23.340;2023-02-13T00:36:11;31.27;;;14.57;;
9689;SDS011;4884;42.614;23.340;2023-02-13T00:38:38;25.53;;;13.87;;
9689;SDS011;4884;42.614;23.340;2023-02-13T00:41:04;27.07;;;14.83;;
9689;SDS011;4884;42.614;23.340;2023-02-13T00:43:30;22.13;;;14.13;;
9689;SDS011;4884;42.614;23.340;2023-02-13T00:45:56;19.90;;;12.07;;
9689;SDS011;4884;42.614;23.340;2023-02-13T00:48:23;30.73;;;16.57;;
9689;SDS011;4884;42.614;23.340;2023-02-13T00:50:48;33.87;;;18.03;;
9689;SDS011;4884;42.614;23.340;2023-02-13T00:53:15;29.07;;;14.80;;
9689;SDS011;4884;42.614;23.340;2023-02-13T00:55:41;30.90;;;15.83;;
9689;SDS011;4884;42.614;23.340;2023-02-13T00:58:06;35.53;;;19.70;;
9689;SDS011;4884;42.614;23.340;2023-02-13T01:00:32;28.60;;;17.03;;
9689;SDS011;4884;42.614;23.340;2023-02-13T01:02:57;24.43;;;16.30;;
9689;SDS011;4884;42.614;23.340;2023-02-13T01:05:23;26.80;;;16.60;;
9689;SDS011;4884;42.614;23.340;2023-02-13T01:07:48;31.13;;;18.47;;
9689;SDS011;4884;42.614;23.340;2023-02-13T01:10:14;28.80;;;15.63;;
9689;SDS011;4884;42.614;23.340;2023-02-13T01:12:39;25.73;;;14.63;;
9689;SDS011;4884;42.614;23.340;2023-02-13T01:15:06;33.47;;;17.63;;
9689;SDS011;4884;42.614;23.340;2023-02-13T01:17:31;33.17;;;18.93;;
9689;SDS011;4884;42.614;23.340;2023-02-13T01:19:57;26.80;;;15.63;;
9689;SDS011;4884;42.614;23.340;2023-02-13T01:22:22;28.63;;;14.60;;
9689;SDS011;4884;42.614;23.340;2023-02-13T01:24:47;31.97;;;18.80;;
9689;SDS011;4884;42.614;23.340;2023-02-13T01:27:13;35.30;;;20.70;;
9689;SDS011;4884;42.614;23.340;2023-02-13T01:29:38;29.57;;;16.57;;
9689;SDS011;4884;42.614;23.340;2023-02-13T01:32:03;28.97;;;14.13;;
9689;SDS011;4884;42.614;23.340;2023-02-13T01:34:30;23.47;;;13.40;;
9689;SDS011;4884;42.614;23.340;2023-02-13T01:36:56;26.20;;;13.80;;
9689;SDS011;4884;42.614;23.340;2023-02-13T01:39:21;33.70;;;16.17;;
9689;SDS011;4884;42.614;23.340;2023-02-13T01:41:47;39.07;;;21.70;;
9689;SDS011;4884;42.614;23.340;2023-02-13T01:47:09;42.70;;;20.47;;
9689;SDS011;4884;42.614;23.340;2023-02-13T01:49:35;42.13;;;22.13;;
9689;SDS011;4884;42.614;23.340;2023-02-13T01:52:00;36.90;;;21.00;;
9689;SDS011;4884;42.614;23.340;2023-02-13T01:54:27;31.87;;;18.20;;
9689;SDS011;4884;42.614;23.340;2023-02-13T01:56:57;41.80;;;20.57;;
9689;SDS011;4884;42.614;23.340;2023-02-13T01:59:52;38.50;;;20.67;;
9689;SDS011;4884;42.614;23.340;2023-02-13T02:02:21;50.53;;;25.47;;
9689;SDS011;4884;42.614;23.340;2023-02-13T02:04:47;42.40;;;22.97;;
9689;SDS011;4884;42.614;23.340;2023-02-13T02:07:18;50.27;;;26.20;;
9689;SDS011;4884;42.614;23.340;2023-02-13T02:09:45;48.33;;;25.60;;
9689;SDS011;4884;42.614;23.340;2023-02-13T02:12:13;56.37;;;26.40;;
9689;SDS011;4884;42.614;23.340;2023-02-13T02:14:45;52.67;;;28.67;;
9689;SDS011;4884;42.614;23.340;2023-02-13T02:17:11;43.23;;;23.27;;
9689;SDS011;4884;42.614;23.340;2023-02-13T02:19:38;55.37;;;29.00;;
9689;SDS011;4884;42.614;23.340;2023-02-13T02:38:24;80.17;;;39.20;;
9689;SDS011;4884;42.614;23.340;2023-02-13T02:41:10;69.77;;;37.93;;
9689;SDS011;4884;42.614;23.340;2023-02-13T02:44:07;72.27;;;36.93;;
9689;SDS011;4884;42.614;23.340;2023-02-13T02:49:39;69.00;;;33.80;;
9689;SDS011;4884;42.614;23.340;2023-02-13T02:52:33;76.00;;;37.43;;
9689;SDS011;4884;42.614;23.340;2023-02-13T02:58:11;71.80;;;35.50;;
9689;SDS011;4884;42.614;23.340;2023-02-13T03:00:59;66.70;;;31.33;;
9689;SDS011;4884;42.614;23.340;2023-02-13T03:03:44;54.50;;;27.97;;
9689;SDS011;4884;42.614;23.340;2023-02-13T03:06:31;54.53;;;26.83;;
9689;SDS011;4884;42.614;23.340;2023-02-13T03:09:01;48.43;;;27.13;;
9689;SDS011;4884;42.614;23.340;2023-02-13T03:11:50;61.23;;;29.63;;
9689;SDS011;4884;42.614;23.340;2023-02-13T03:14:36;62.10;;;32.60;;
9689;SDS011;4884;42.614;23.340;2023-02-13T03:17:01;63.33;;;35.27;;
9689;SDS011;4884;42.614;23.340;2023-02-13T03:19:50;63.87;;;34.40;;
9689;SDS011;4884;42.614;23.340;2023-02-13T03:31:11;70.53;;;33.93;;
9689;SDS011;4884;42.614;23.340;2023-02-13T03:42:14;61.10;;;29.87;;
9689;SDS011;4884;42.614;23.340;2023-02-13T03:44:54;61.40;;;29.90;;
9689;SDS011;4884;42.614;23.340;2023-02-13T03:47:40;57.13;;;28.30;;
9689;SDS011;4884;42.614;23.340;2023-02-13T03:50:07;57.00;;;27.97;;
9689;SDS011;4884;42.614;23.340;2023-02-13T03:52:38;64.77;;;30.33;;
9689;SDS011;4884;42.614;23.340;2023-02-13T03:58:05;63.93;;;32.67;;
9689;SDS011;4884;42.614;23.340;2023-02-13T04:00:53;56.50;;;30.13;;
9689;SDS011;4884;42.614;23.340;2023-02-13T04:06:12;59.97;;;30.43;;
9689;SDS011;4884;42.614;23.340;2023-02-13T04:08:39;59.57;;;30.83;;
9689;SDS011;4884;42.614;23.340;2023-02-13T04:16:32;59.27;;;31.37;;
9689;SDS011;4884;42.614;23.340;2023-02-13T04:19:00;58.13;;;30.13;;
9689;SDS011;4884;42.614;23.340;2023-02-13T04:21:25;49.93;;;26.57;;
9689;SDS011;4884;42.614;23.340;2023-02-13T04:23:51;48.57;;;26.67;;
9689;SDS011;4884;42.614;23.340;2023-02-13T04:26:17;62.20;;;34.57;;
9689;SDS011;4884;42.614;23.340;2023-02-13T04:28:44;69.07;;;36.80;;
9689;SDS011;4884;42.614;23.340;2023-02-13T04:31:09;82.60;;;41.50;;
9689;SDS011;4884;42.614;23.340;2023-02-13T04:33:34;99.97;;;52.83;;
9689;SDS011;4884;42.614;23.340;2023-02-13T04:36:00;86.17;;;43.23;;
9689;SDS011;4884;42.614;23.340;2023-02-13T04:38:25;62.37;;;32.67;;
9689;SDS011;4884;42.614;23.340;2023-02-13T04:40:51;65.80;;;34.93;;
9689;SDS011;4884;42.614;23.340;2023-02-13T04:43:16;63.83;;;32.83;;
9689;SDS011;4884;42.614;23.340;2023-02-13T04:45:41;89.73;;;47.13;;
9689;SDS011;4884;42.614;23.340;2023-02-13T04:48:07;82.10;;;42.17;;
9689;SDS011;4884;42.614;23.340;2023-02-13T04:50:33;80.53;;;41.10;;
9689;SDS011;4884;42.614;23.340;2023-02-13T04:52:58;96.23;;;48.07;;
9689;SDS011;4884;42.614;23.340;2023-02-13T04:55:24;95.37;;;51.80;;
9689;SDS011;4884;42.614;23.340;2023-02-13T04:57:51;90.63;;;46.60;;
9689;SDS011;4884;42.614;23.340;2023-02-13T05:00:18;87.63;;;43.83;;
9689;SDS011;4884;42.614;23.340;2023-02-13T05:02:44;86.17;;;45.00;;
9689;SDS011;4884;42.614;23.340;2023-02-13T05:05:10;106.13;;;53.17;;
9689;SDS011;4884;42.614;23.340;2023-02-13T05:07:35;72.77;;;34.00;;
9689;SDS011;4884;42.614;23.340;2023-02-13T05:10:00;69.57;;;37.97;;
9689;SDS011;4884;42.614;23.340;2023-02-13T05:12:26;74.23;;;37.73;;
9689;SDS011;4884;42.614;23.340;2023-02-13T05:14:51;59.83;;;31.70;;
9689;SDS011;4884;42.614;23.340;2023-02-13T05:17:16;69.10;;;35.70;;
9689;SDS011;4884;42.614;23.340;2023-02-13T05:19:42;74.57;;;38.83;;
9689;SDS011;4884;42.614;23.340;2023-02-13T05:22:08;71.37;;;33.67;;
9689;SDS011;4884;42.614;23.340;2023-02-13T05:24:52;71.07;;;36.80;;
9689;SDS011;4884;42.614;23.340;2023-02-13T05:27:17;69.53;;;34.33;;
9689;SDS011;4884;42.614;23.340;2023-02-13T05:29:43;65.13;;;34.53;;
9689;SDS011;4884;42.614;23.340;2023-02-13T05:32:08;74.10;;;35.43;;
9689;SDS011;4884;42.614;23.340;2023-02-13T05:34:33;80.47;;;37.33;;
9689;SDS011;4884;42.614;23.340;2023-02-13T05:36:59;73.73;;;36.23;;
9689;SDS011;4884;42.614;23.340;2023-02-13T05:39:24;83.23;;;42.37;;
9689;SDS011;4884;42.614;23.340;2023-02-13T05:41:50;71.87;;;36.40;;
9689;SDS011;4884;42.614;23.340;2023-02-13T05:44:15;73.63;;;35.80;;
9689;SDS011;4884;42.614;23.340;2023-02-13T05:46:41;62.27;;;32.27;;
9689;SDS011;4884;42.614;23.340;2023-02-13T05:49:08;72.73;;;33.53;;
9689;SDS011;4884;42.614;23.340;2023-02-13T05:51:34;69.70;;;33.97;;
9689;SDS011;4884;42.614;23.340;2023-02-13T05:54:00;60.60;;;32.70;;
9689;SDS011;4884;42.614;23.340;2023-02-13T05:56:25;66.00;;;33.60;;
9689;SDS011;4884;42.614;23.340;2023-02-13T05:58:51;74.77;;;36.17;;
9689;SDS011;4884;42.614;23.340;2023-02-13T06:01:17;73.00;;;35.30;;
9689;SDS011;4884;42.614;23.340;2023-02-13T06:03:42;69.87;;;35.43;;
9689;SDS011;4884;42.614;23.340;2023-02-13T06:06:07;62.03;;;33.30;;
9689;SDS011;4884;42.614;23.340;2023-02-13T06:08:33;59.87;;;32.23;;
9689;SDS011;4884;42.614;23.340;2023-02-13T06:10:58;66.63;;;34.27;;
9689;SDS011;4884;42.614;23.340;2023-02-13T06:13:24;65.30;;;35.43;;
9689;SDS011;4884;42.614;23.340;2023-02-13T06:15:49;68.50;;;33.00;;
9689;SDS011;4884;42.614;23.340;2023-02-13T06:18:15;62.80;;;33.63;;
9689;SDS011;4884;42.614;23.340;2023-02-13T06:20:40;71.83;;;35.57;;
9689;SDS011;4884;42.614;23.340;2023-02-13T06:23:05;64.93;;;34.73;;
9689;SDS011;4884;42.614;23.340;2023-02-13T06:25:31;66.17;;;35.13;;
9689;SDS011;4884;42.614;23.340;2023-02-13T06:27:58;65.20;;;33.73;;
9689;SDS011;4884;42.614;23.340;2023-02-13T06:30:24;59.37;;;33.43;;
9689;SDS011;4884;42.614;23.340;2023-02-13T06:32:49;68.70;;;34.43;;
9689;SDS011;4884;42.614;23.340;2023-02-13T06:35:15;65.23;;;33.00;;
9689;SDS011;4884;42.614;23.340;2023-02-13T06:37:40;180.60;;;87.33;;
9689;SDS011;4884;42.614;23.340;2023-02-13T06:40:10;94.53;;;52.03;;
9689;SDS011;4884;42.614;23.340;2023-02-13T06:42:37;98.00;;;60.90;;
9689;SDS011;4884;42.614;23.340;2023-02-13T06:45:02;67.53;;;37.70;;
9689;SDS011;4884;42.614;23.340;2023-02-13T06:47:28;84.87;;;52.20;;
9689;SDS011;4884;42.614;23.340;2023-02-13T06:49:53;73.47;;;43.73;;
9689;SDS011;4884;42.614;23.340;2023-02-13T06:52:19;78.23;;;43.23;;
9689;SDS011;4884;42.614;23.340;2023-02-13T06:54:44;76.27;;;40.43;;
9689;SDS011;4884;42.614;23.340;2023-02-13T06:57:09;75.70;;;39.73;;
9689;SDS011;4884;42.614;23.340;2023-02-13T06:59:35;82.60;;;47.70;;
9689;SDS011;4884;42.614;23.340;2023-02-13T07:02:00;71.23;;;38.73;;
9689;SDS011;4884;42.614;23.340;2023-02-13T07:04:26;75.17;;;41.27;;
9689;SDS011;4884;42.614;23.340;2023-02-13T07:06:55;72.63;;;37.93;;
9689;SDS011;4884;42.614;23.340;2023-02-13T07:09:21;81.63;;;47.83;;
9689;SDS011;4884;42.614;23.340;2023-02-13T07:11:47;79.13;;;49.53;;
9689;SDS011;4884;42.614;23.340;2023-02-13T07:14:12;71.30;;;40.40;;
9689;SDS011;4884;42.614;23.340;2023-02-13T07:16:38;76.73;;;40.10;;
9689;SDS011;4884;42.614;23.340;2023-02-13T07:19:03;117.40;;;73.50;;
9689;SDS011;4884;42.614;23.340;2023-02-13T07:21:29;98.23;;;56.77;;
9689;SDS011;4884;42.614;23.340;2023-02-13T07:23:54;91.47;;;48.47;;
9689;SDS011;4884;42.614;23.340;2023-02-13T07:26:19;86.83;;;45.50;;
9689;SDS011;4884;42.614;23.340;2023-02-13T07:28:45;67.93;;;39.37;;
9689;SDS011;4884;42.614;23.340;2023-02-13T07:31:10;67.23;;;35.00;;
9689;SDS011;4884;42.614;23.340;2023-02-13T07:33:35;129.13;;;89.07;;
9689;SDS011;4884;42.614;23.340;2023-02-13T07:36:01;69.67;;;40.63;;
9689;SDS011;4884;42.614;23.340;2023-02-13T07:38:28;61.93;;;36.60;;
9689;SDS011;4884;42.614;23.340;2023-02-13T07:40:57;61.57;;;35.97;;
9689;SDS011;4884;42.614;23.340;2023-02-13T07:43:26;73.80;;;40.43;;
9689;SDS011;4884;42.614;23.340;2023-02-13T07:45:51;53.27;;;32.77;;
9689;SDS011;4884;42.614;23.340;2023-02-13T07:48:20;61.33;;;33.93;;
9689;SDS011;4884;42.614;23.340;2023-02-13T07:50:46;58.60;;;35.13;;
9689;SDS011;4884;42.614;23.340;2023-02-13T07:53:12;61.40;;;34.73;;
9689;SDS011;4884;42.614;23.340;2023-02-13T07:55:37;57.40;;;33.67;;
9689;SDS011;4884;42.614;23.340;2023-02-13T07:58:03;72.13;;;51.03;;
9689;SDS011;4884;42.614;23.340;2023-02-13T08:00:28;68.03;;;39.00;;
9689;SDS011;4884;42.614;23.340;2023-02-13T08:02:54;69.93;;;43.10;;
9689;SDS011;4884;42.614;23.340;2023-02-13T08:05:19;106.20;;;58.17;;
9689;SDS011;4884;42.614;23.340;2023-02-13T08:07:44;66.63;;;37.37;;
9689;SDS011;4884;42.614;23.340;2023-02-13T08:10:11;61.60;;;32.70;;
9689;SDS011;4884;42.614;23.340;2023-02-13T08:12:55;62.50;;;37.93;;
9689;SDS011;4884;42.614;23.340;2023-02-13T08:15:20;63.37;;;35.33;;
9689;SDS011;4884;42.614;23.340;2023-02-13T08:17:46;55.73;;;32.30;;
9689;SDS011;4884;42.614;23.340;2023-02-13T08:20:11;59.20;;;35.83;;
9689;SDS011;4884;42.614;23.340;2023-02-13T08:22:37;59.70;;;36.60;;
9689;SDS011;4884;42.614;23.340;2023-02-13T08:25:02;65.97;;;40.33;;
9689;SDS011;4884;42.614;23.340;2023-02-13T08:27:28;61.17;;;38.70;;
9689;SDS011;4884;42.614;23.340;2023-02-13T08:29:54;90.50;;;60.47;;
9689;SDS011;4884;42.614;23.340;2023-02-13T08:32:20;68.30;;;41.00;;
9689;SDS011;4884;42.614;23.340;2023-02-13T08:34:46;64.17;;;35.30;;
9689;SDS011;4884;42.614;23.340;2023-02-13T08:37:11;61.80;;;36.03;;
9689;SDS011;4884;42.614;23.340;2023-02-13T08:39:37;63.97;;;35.60;;
9689;SDS011;4884;42.614;23.340;2023-02-13T08:42:02;57.07;;;32.60;;
9689;SDS011;4884;42.614;23.340;2023-02-13T08:44:27;58.27;;;34.27;;
9689;SDS011;4884;42.614;23.340;2023-02-13T08:46:53;61.23;;;34.13;;
9689;SDS011;4884;42.614;23.340;2023-02-13T08:49:18;59.37;;;32.77;;
9689;SDS011;4884;42.614;23.340;2023-02-13T08:51:43;67.50;;;38.97;;
9689;SDS011;4884;42.614;23.340;2023-02-13T08:54:09;52.00;;;31.80;;
9689;SDS011;4884;42.614;23.340;2023-02-13T08:56:34;57.57;;;35.43;;
9689;SDS011;4884;42.614;23.340;2023-02-13T08:58:59;67.03;;;39.03;;
9689;SDS011;4884;42.614;23.340;2023-02-13T09:01:25;59.40;;;37.83;;
9689;SDS011;4884;42.614;23.340;2023-02-13T09:03:50;58.07;;;32.93;;
9689;SDS011;4884;42.614;23.340;2023-02-13T09:06:16;56.13;;;34.50;;
9689;SDS011;4884;42.614;23.340;2023-02-13T09:08:41;60.53;;;31.67;;
9689;SDS011;4884;42.614;23.340;2023-02-13T09:11:08;56.47;;;31.67;;
9689;SDS011;4884;42.614;23.340;2023-02-13T09:13:34;56.07;;;33.43;;
9689;SDS011;4884;42.614;23.340;2023-02-13T09:16:01;54.50;;;33.23;;
9689;SDS011;4884;42.614;23.340;2023-02-13T09:18:31;59.97;;;34.77;;
9689;SDS011;4884;42.614;23.340;2023-02-13T09:20:57;58.13;;;34.90;;
9689;SDS011;4884;42.614;23.340;2023-02-13T09:23:24;60.53;;;36.93;;
9689;SDS011;4884;42.614;23.340;2023-02-13T09:25:50;56.47;;;33.77;;
9689;SDS011;4884;42.614;23.340;2023-02-13T09:28:15;57.87;;;30.70;;
9689;SDS011;4884;42.614;23.340;2023-02-13T09:30:40;50.70;;;31.10;;
9689;SDS011;4884;42.614;23.340;2023-02-13T09:33:09;53.40;;;31.47;;
9689;SDS011;4884;42.614;23.340;2023-02-13T09:35:35;52.17;;;32.00;;
9689;SDS011;4884;42.614;23.340;2023-02-13T09:38:00;51.10;;;30.93;;
9689;SDS011;4884;42.614;23.340;2023-02-13T09:40:27;49.30;;;30.60;;
9689;SDS011;4884;42.614;23.340;2023-02-13T09:43:03;53.33;;;31.20;;
9689;SDS011;4884;42.614;23.340;2023-02-13T09:45:32;46.87;;;31.43;;
9689;SDS011;4884;42.614;23.340;2023-02-13T09:47:58;55.07;;;32.23;;
9689;SDS011;4884;42.614;23.340;2023-02-13T09:50:24;55.93;;;35.30;;
9689;SDS011;4884;42.614;23.340;2023-02-13T09:52:52;50.40;;;32.63;;
9689;SDS011;4884;42.614;23.340;2023-02-13T09:55:34;54.50;;;34.50;;
9689;SDS011;4884;42.614;23.340;2023-02-13T09:58:31;55.67;;;36.97;;
9689;SDS011;4884;42.614;23.340;2023-02-13T10:01:00;51.00;;;34.03;;
9689;SDS011;4884;42.614;23.340;2023-02-13T10:03:31;50.87;;;32.90;;
9689;SDS011;4884;42.614;23.340;2023-02-13T10:09:02;49.83;;;33.03;;
9689;SDS011;4884;42.614;23.340;2023-02-13T10:14:10;47.17;;;32.80;;
9689;SDS011;4884;42.614;23.340;2023-02-13T10:16:39;46.37;;;32.97;;
9689;SDS011;4884;42.614;23.340;2023-02-13T10:19:28;54.80;;;36.23;;
9689;SDS011;4884;42.614;23.340;2023-02-13T10:21:58;49.50;;;31.73;;
9689;SDS011;4884;42.614;23.340;2023-02-13T10:27:33;44.17;;;30.33;;
9689;SDS011;4884;42.614;23.340;2023-02-13T10:30:07;50.17;;;33.63;;
9689;SDS011;4884;42.614;23.340;2023-02-13T10:38:26;45.63;;;33.23;;
9689;SDS011;4884;42.614;23.340;2023-02-13T10:43:48;52.53;;;35.27;;
9689;SDS011;4884;42.614;23.340;2023-02-13T10:46:31;54.70;;;34.30;;
9689;SDS011;4884;42.614;23.340;2023-02-13T10:51:59;52.00;;;36.63;;
9689;SDS011;4884;42.614;23.340;2023-02-13T10:57:58;47.03;;;33.43;;
9689;SDS011;4884;42.614;23.340;2023-02-13T11:03:14;53.10;;;35.43;;
9689;SDS011;4884;42.614;23.340;2023-02-13T11:05:42;49.07;;;36.47;;
9689;SDS011;4884;42.614;23.340;2023-02-13T11:08:16;50.50;;;35.20;;
9689;SDS011;4884;42.614;23.340;2023-02-13T11:10:44;49.43;;;34.00;;
9689;SDS011;4884;42.614;23.340;2023-02-13T11:13:20;47.83;;;34.93;;
9689;SDS011;4884;42.614;23.340;2023-02-13T11:16:00;54.93;;;34.47;;
9689;SDS011;4884;42.614;23.340;2023-02-13T11:18:31;50.40;;;37.27;;
9689;SDS011;4884;42.614;23.340;2023-02-13T11:21:08;47.97;;;35.57;;
9689;SDS011;4884;42.614;23.340;2023-02-13T11:23:36;55.17;;;35.70;;
9689;SDS011;4884;42.614;23.340;2023-02-13T11:28:58;51.60;;;35.87;;
9689;SDS011;4884;42.614;23.340;2023-02-13T11:33:55;50.00;;;33.20;;
9689;SDS011;4884;42.614;23.340;2023-02-13T11:36:30;49.53;;;32.13;;
9689;SDS011;4884;42.614;23.340;2023-02-13T11:39:04;46.87;;;32.73;;
9689;SDS011;4884;42.614;23.340;2023-02-13T11:41:41;46.33;;;32.67;;
9689;SDS011;4884;42.614;23.340;2023-02-13T11:44:21;50.10;;;31.67;;
9689;SDS011;4884;42.614;23.340;2023-02-13T11:46:50;39.30;;;28.27;;
9689;SDS011;4884;42.614;23.340;2023-02-13T11:49:21;39.83;;;29.93;;
9689;SDS011;4884;42.614;23.340;2023-02-13T11:51:51;38.50;;;28.80;;
9689;SDS011;4884;42.614;23.340;2023-02-13T11:56:51;38.10;;;27.20;;
9689;SDS011;4884;42.614;23.340;2023-02-13T11:59:18;40.57;;;28.67;;
9689;SDS011;4884;42.614;23.340;2023-02-13T12:01:46;37.30;;;28.37;;
9689;SDS011;4884;42.614;23.340;2023-02-13T12:04:26;35.93;;;26.50;;
9689;SDS011;4884;42.614;23.340;2023-02-13T12:07:02;36.03;;;26.43;;
9689;SDS011;4884;42.614;23.340;2023-02-13T12:09:33;36.90;;;26.00;;
9689;SDS011;4884;42.614;23.340;2023-02-13T12:11:59;35.53;;;26.10;;
9689;SDS011;4884;42.614;23.340;2023-02-13T12:14:30;47.40;;;31.00;;
9689;SDS011;4884;42.614;23.340;2023-02-13T12:19:42;31.77;;;24.20;;
9689;SDS011;4884;42.614;23.340;2023-02-13T12:27:28;35.17;;;24.93;;
9689;SDS011;4884;42.614;23.340;2023-02-13T12:35:16;29.87;;;22.30;;
9689;SDS011;4884;42.614;23.340;2023-02-13T12:46:00;30.40;;;20.57;;
9689;SDS011;4884;42.614;23.340;2023-02-13T12:48:39;29.10;;;21.93;;
9689;SDS011;4884;42.614;23.340;2023-02-13T12:54:09;30.40;;;22.33;;
9689;SDS011;4884;42.614;23.340;2023-02-13T13:10:59;27.97;;;19.57;;
9689;SDS011;4884;42.614;23.340;2023-02-13T13:24:29;24.27;;;17.93;;
9689;SDS011;4884;42.614;23.340;2023-02-13T13:27:25;26.90;;;18.50;;
9689;SDS011;4884;42.614;23.340;2023-02-13T13:29:54;25.17;;;18.17;;
9689;SDS011;4884;42.614;23.340;2023-02-13T13:32:22;24.37;;;18.57;;
9689;SDS011;4884;42.614;23.340;2023-02-13T13:34:48;26.07;;;17.00;;
9689;SDS011;4884;42.614;23.340;2023-02-13T13:37:20;25.00;;;17.20;;
9689;SDS011;4884;42.614;23.340;2023-02-13T13:50:35;25.70;;;18.37;;
9689;SDS011;4884;42.614;23.340;2023-02-13T13:53:11;24.80;;;17.13;;
9689;SDS011;4884;42.614;23.340;2023-02-13T14:01:27;31.97;;;19.50;;
9689;SDS011;4884;42.614;23.340;2023-02-13T14:03:58;27.03;;;17.20;;
9689;SDS011;4884;42.614;23.340;2023-02-13T14:07:13;30.73;;;20.50;;
9689;SDS011;4884;42.614;23.340;2023-02-13T14:11:51;27.43;;;18.03;;
9689;SDS011;4884;42.614;23.340;2023-02-13T14:16:51;32.07;;;17.10;;
9689;SDS011;4884;42.614;23.340;2023-02-13T14:19:24;25.00;;;16.80;;
9689;SDS011;4884;42.614;23.340;2023-02-13T14:21:53;28.93;;;19.37;;
9689;SDS011;4884;42.614;23.340;2023-02-13T14:24:19;22.83;;;16.10;;
9689;SDS011;4884;42.614;23.340;2023-02-13T14:26:51;33.00;;;21.20;;
9689;SDS011;4884;42.614;23.340;2023-02-13T14:31:54;31.77;;;19.13;;
9689;SDS011;4884;42.614;23.340;2023-02-13T14:34:24;44.17;;;25.17;;
9689;SDS011;4884;42.614;23.340;2023-02-13T14:37:01;35.73;;;23.30;;
9689;SDS011;4884;42.614;23.340;2023-02-13T14:39:32;40.23;;;24.87;;
9689;SDS011;4884;42.614;23.340;2023-02-13T14:42:22;41.83;;;24.73;;
9689;SDS011;4884;42.614;23.340;2023-02-13T14:44:50;38.17;;;25.07;;
9689;SDS011;4884;42.614;23.340;2023-02-13T14:47:23;62.87;;;40.10;;
9689;SDS011;4884;42.614;23.340;2023-02-13T14:49:54;44.37;;;29.83;;
9689;SDS011;4884;42.614;23.340;2023-02-13T14:52:32;35.63;;;24.47;;
9689;SDS011;4884;42.614;23.340;2023-02-13T14:55:15;39.87;;;27.17;;
9689;SDS011;4884;42.614;23.340;2023-02-13T14:57:50;36.27;;;23.60;;
9689;SDS011;4884;42.614;23.340;2023-02-13T15:02:47;34.50;;;24.70;;
9689;SDS011;4884;42.614;23.340;2023-02-13T15:05:16;33.40;;;22.07;;
9689;SDS011;4884;42.614;23.340;2023-02-13T15:07:49;29.97;;;21.27;;
9689;SDS011;4884;42.614;23.340;2023-02-13T15:12:48;38.27;;;25.17;;
9689;SDS011;4884;42.614;23.340;2023-02-13T15:15:22;35.50;;;22.47;;
9689;SDS011;4884;42.614;23.340;2023-02-13T15:17:52;34.43;;;22.27;;
9689;SDS011;4884;42.614;23.340;2023-02-13T15:20:22;34.00;;;20.20;;
9689;SDS011;4884;42.614;23.340;2023-02-13T15:22:49;32.33;;;21.03;;
9689;SDS011;4884;42.614;23.340;2023-02-13T15:25:22;40.40;;;23.67;;
9689;SDS011;4884;42.614;23.340;2023-02-13T15:27:50;43.47;;;25.93;;
9689;SDS011;4884;42.614;23.340;2023-02-13T15:32:43;36.27;;;22.97;;
9689;SDS011;4884;42.614;23.340;2023-02-13T15:35:16;31.40;;;21.90;;
9689;SDS011;4884;42.614;23.340;2023-02-13T15:37:47;34.87;;;23.97;;
9689;SDS011;4884;42.614;23.340;2023-02-13T15:40:13;41.10;;;25.87;;
9689;SDS011;4884;42.614;23.340;2023-02-13T15:42:39;55.73;;;35.27;;
9689;SDS011;4884;42.614;23.340;2023-02-13T15:45:05;46.47;;;27.57;;
9689;SDS011;4884;42.614;23.340;2023-02-13T15:47:38;42.50;;;27.73;;
9689;SDS011;4884;42.614;23.340;2023-02-13T15:50:04;41.20;;;26.30;;
9689;SDS011;4884;42.614;23.340;2023-02-13T15:52:40;42.27;;;25.77;;
9689;SDS011;4884;42.614;23.340;2023-02-13T15:55:13;47.57;;;27.83;;
9689;SDS011;4884;42.614;23.340;2023-02-13T15:57:42;49.23;;;31.83;;
9689;SDS011;4884;42.614;23.340;2023-02-13T16:00:12;44.03;;;29.60;;
9689;SDS011;4884;42.614;23.340;2023-02-13T16:02:41;50.63;;;29.80;;
9689;SDS011;4884;42.614;23.340;2023-02-13T16:05:08;46.30;;;29.97;;
9689;SDS011;4884;42.614;23.340;2023-02-13T16:07:52;53.57;;;33.23;;
9689;SDS011;4884;42.614;23.340;2023-02-13T16:12:52;49.53;;;31.17;;
9689;SDS011;4884;42.614;23.340;2023-02-13T16:15:18;50.03;;;34.53;;
9689;SDS011;4884;42.614;23.340;2023-02-13T16:17:45;51.17;;;34.37;;
9689;SDS011;4884;42.614;23.340;2023-02-13T16:22:37;55.90;;;40.23;;
9689;SDS011;4884;42.614;23.340;2023-02-13T16:28:16;94.13;;;60.73;;
9689;SDS011;4884;42.614;23.340;2023-02-13T16:30:50;71.03;;;52.07;;
9689;SDS011;4884;42.614;23.340;2023-02-13T16:35:57;53.97;;;37.00;;
9689;SDS011;4884;42.614;23.340;2023-02-13T16:40:52;52.97;;;33.17;;
9689;SDS011;4884;42.614;23.340;2023-02-13T16:43:34;43.40;;;27.80;;
9689;SDS011;4884;42.614;23.340;2023-02-13T16:48:43;43.10;;;24.53;;
9689;SDS011;4884;42.614;23.340;2023-02-13T16:51:11;41.10;;;26.30;;
9689;SDS011;4884;42.614;23.340;2023-02-13T16:53:36;50.93;;;34.20;;
9689;SDS011;4884;42.614;23.340;2023-02-13T16:56:06;50.10;;;29.23;;
9689;SDS011;4884;42.614;23.340;2023-02-13T16:58:33;54.13;;;31.83;;
9689;SDS011;4884;42.614;23.340;2023-02-13T17:00:58;79.40;;;55.27;;
9689;SDS011;4884;42.614;23.340;2023-02-13T17:03:25;47.00;;;31.63;;
9689;SDS011;4884;42.614;23.340;2023-02-13T17:05:51;63.03;;;39.03;;
9689;SDS011;4884;42.614;23.340;2023-02-13T17:08:16;68.10;;;51.03;;
9689;SDS011;4884;42.614;23.340;2023-02-13T17:10:42;50.50;;;32.73;;
9689;SDS011;4884;42.614;23.340;2023-02-13T17:13:34;56.67;;;31.13;;
9689;SDS011;4884;42.614;23.340;2023-02-13T17:15:59;61.57;;;34.63;;
9689;SDS011;4884;42.614;23.340;2023-02-13T17:18:25;105.10;;;61.47;;
9689;SDS011;4884;42.614;23.340;2023-02-13T17:20:51;74.37;;;46.73;;
9689;SDS011;4884;42.614;23.340;2023-02-13T17:23:18;80.83;;;49.93;;
9689;SDS011;4884;42.614;23.340;2023-02-13T17:25:46;93.03;;;47.73;;
9689;SDS011;4884;42.614;23.340;2023-02-13T17:28:15;59.60;;;32.80;;
9689;SDS011;4884;42.614;23.340;2023-02-13T17:30:42;88.53;;;47.90;;
9689;SDS011;4884;42.614;23.340;2023-02-13T17:33:12;120.20;;;57.53;;
9689;SDS011;4884;42.614;23.340;2023-02-13T17:35:39;89.70;;;43.80;;
9689;SDS011;4884;42.614;23.340;2023-02-13T17:38:04;84.30;;;43.63;;
9689;SDS011;4884;42.614;23.340;2023-02-13T17:40:33;56.00;;;33.30;;
9689;SDS011;4884;42.614;23.340;2023-02-13T17:42:59;52.57;;;32.70;;
9689;SDS011;4884;42.614;23.340;2023-02-13T17:45:25;52.37;;;31.63;;
9689;SDS011;4884;42.614;23.340;2023-02-13T17:47:52;47.23;;;30.03;;
9689;SDS011;4884;42.614;23.340;2023-02-13T17:50:18;59.43;;;38.73;;